sensor_id;sensor_type;location;lat;lon;timestamp;P1;durP1;ratioP1;P2;durP2;ratioP2
16662;SDS011;8445;51.270;9.434;2022-09-09T00:07:07;9.32;;;4.85;;
16662;SDS011;8445;51.270;9.434;2022-09-09T00:21:35;14.48;;;5.78;;
16662;SDS011;8445;51.270;9.434;2022-09-09T00:24:11;11.20;;;5.65;;
16662;SDS011;8445;51.270;9.434;2022-09-09T00:27:06;12.05;;;6.07;;
16662;SDS011;8445;51.270;9.434;2022-09-09T00:29:43;15.68;;;6.10;;
16662;SDS011;8445;51.270;9.434;2022-09-09T00:32:20;11.43;;;5.57;;
16662;SDS011;8445;51.270;9.434;2022-09-09T00:34:49;14.80;;;6.38;;
16662;SDS011;8445;51.270;9.434;2022-09-09T00:37:21;11.88;;;5.65;;
16662;SDS011;8445;51.270;9.434;2022-09-09T00:39:53;14.05;;;5.85;;
16662;SDS011;8445;51.270;9.434;2022-09-09T00:42:41;9.30;;;5.25;;
16662;SDS011;8445;51.270;9.434;2022-09-09T00:48:06;14.38;;;6.38;;
16662;SDS011;8445;51.270;9.434;2022-09-09T00:56:23;11.82;;;5.75;;
16662;SDS011;8445;51.270;9.434;2022-09-09T01:01:36;12.55;;;6.40;;
16662;SDS011;8445;51.270;9.434;2022-09-09T01:04:13;16.35;;;6.53;;
16662;SDS011;8445;51.270;9.434;2022-09-09T01:06:55;14.60;;;6.70;;
16662;SDS011;8445;51.270;9.434;2022-09-09T01:15:21;12.35;;;6.45;;
16662;SDS011;8445;51.270;9.434;2022-09-09T01:20:43;12.40;;;6.22;;
16662;SDS011;8445;51.270;9.434;2022-09-09T01:23:39;16.08;;;6.38;;
16662;SDS011;8445;51.270;9.434;2022-09-09T01:26:39;10.27;;;6.20;;
16662;SDS011;8445;51.270;9.434;2022-09-09T01:29:19;15.00;;;6.70;;
16662;SDS011;8445;51.270;9.434;2022-09-09T01:31:58;13.05;;;6.32;;
16662;SDS011;8445;51.270;9.434;2022-09-09T01:35:02;14.13;;;5.70;;
16662;SDS011;8445;51.270;9.434;2022-09-09T01:37:30;15.02;;;6.30;;
16662;SDS011;8445;51.270;9.434;2022-09-09T01:39:56;10.80;;;6.47;;
16662;SDS011;8445;51.270;9.434;2022-09-09T01:42:22;15.35;;;6.22;;
16662;SDS011;8445;51.270;9.434;2022-09-09T01:44:48;9.45;;;5.75;;
16662;SDS011;8445;51.270;9.434;2022-09-09T01:47:14;15.07;;;6.45;;
16662;SDS011;8445;51.270;9.434;2022-09-09T01:50:19;12.00;;;5.72;;
16662;SDS011;8445;51.270;9.434;2022-09-09T01:52:48;15.95;;;6.15;;
16662;SDS011;8445;51.270;9.434;2022-09-09T01:55:37;10.70;;;5.60;;
16662;SDS011;8445;51.270;9.434;2022-09-09T02:03:49;19.15;;;6.05;;
16662;SDS011;8445;51.270;9.434;2022-09-09T02:09:10;10.57;;;5.40;;
16662;SDS011;8445;51.270;9.434;2022-09-09T02:11:39;18.63;;;6.05;;
16662;SDS011;8445;51.270;9.434;2022-09-09T02:14:34;12.73;;;5.80;;
16662;SDS011;8445;51.270;9.434;2022-09-09T02:17:11;10.50;;;5.47;;
16662;SDS011;8445;51.270;9.434;2022-09-09T02:20:10;10.02;;;5.72;;
16662;SDS011;8445;51.270;9.434;2022-09-09T02:22:45;11.32;;;5.93;;
16662;SDS011;8445;51.270;9.434;2022-09-09T02:25:18;10.32;;;5.82;;
16662;SDS011;8445;51.270;9.434;2022-09-09T02:27:50;11.07;;;5.80;;
16662;SDS011;8445;51.270;9.434;2022-09-09T02:30:17;12.18;;;6.38;;
16662;SDS011;8445;51.270;9.434;2022-09-09T02:32:52;10.57;;;6.55;;
16662;SDS011;8445;51.270;9.434;2022-09-09T02:35:35;19.10;;;7.10;;
16662;SDS011;8445;51.270;9.434;2022-09-09T02:38:04;13.68;;;7.00;;
16662;SDS011;8445;51.270;9.434;2022-09-09T02:40:39;13.25;;;7.10;;
16662;SDS011;8445;51.270;9.434;2022-09-09T02:43:05;13.02;;;6.97;;
16662;SDS011;8445;51.270;9.434;2022-09-09T02:45:44;10.63;;;6.82;;
16662;SDS011;8445;51.270;9.434;2022-09-09T02:48:50;9.73;;;5.95;;
16662;SDS011;8445;51.270;9.434;2022-09-09T02:54:27;15.98;;;6.78;;
16662;SDS011;8445;51.270;9.434;2022-09-09T02:57:12;12.05;;;6.40;;
16662;SDS011;8445;51.270;9.434;2022-09-09T02:59:47;13.30;;;6.38;;
16662;SDS011;8445;51.270;9.434;2022-09-09T03:02:17;11.18;;;5.90;;
16662;SDS011;8445;51.270;9.434;2022-09-09T03:04:47;11.65;;;6.43;;
16662;SDS011;8445;51.270;9.434;2022-09-09T03:07:20;12.65;;;6.10;;
16662;SDS011;8445;51.270;9.434;2022-09-09T03:09:51;9.57;;;5.20;;
16662;SDS011;8445;51.270;9.434;2022-09-09T03:12:19;8.50;;;5.38;;
16662;SDS011;8445;51.270;9.434;2022-09-09T03:14:45;8.23;;;5.60;;
16662;SDS011;8445;51.270;9.434;2022-09-09T03:17:12;10.63;;;5.75;;
16662;SDS011;8445;51.270;9.434;2022-09-09T03:19:44;10.00;;;5.43;;
16662;SDS011;8445;51.270;9.434;2022-09-09T03:22:11;12.82;;;5.45;;
16662;SDS011;8445;51.270;9.434;2022-09-09T03:24:40;13.50;;;5.75;;
16662;SDS011;8445;51.270;9.434;2022-09-09T03:27:06;8.55;;;5.93;;
16662;SDS011;8445;51.270;9.434;2022-09-09T03:29:37;11.27;;;5.72;;
16662;SDS011;8445;51.270;9.434;2022-09-09T03:32:06;9.98;;;5.82;;
16662;SDS011;8445;51.270;9.434;2022-09-09T03:34:35;9.15;;;5.82;;
16662;SDS011;8445;51.270;9.434;2022-09-09T03:37:05;8.68;;;6.15;;
16662;SDS011;8445;51.270;9.434;2022-09-09T03:39:31;14.27;;;6.80;;
16662;SDS011;8445;51.270;9.434;2022-09-09T03:41:58;10.20;;;6.53;;
16662;SDS011;8445;51.270;9.434;2022-09-09T03:44:24;11.07;;;5.70;;
16662;SDS011;8445;51.270;9.434;2022-09-09T03:46:50;11.40;;;6.45;;
16662;SDS011;8445;51.270;9.434;2022-09-09T03:49:18;8.90;;;5.40;;
16662;SDS011;8445;51.270;9.434;2022-09-09T03:51:46;9.32;;;5.85;;
16662;SDS011;8445;51.270;9.434;2022-09-09T03:54:13;10.00;;;5.90;;
16662;SDS011;8445;51.270;9.434;2022-09-09T03:56:38;12.60;;;5.85;;
16662;SDS011;8445;51.270;9.434;2022-09-09T03:59:09;13.57;;;6.22;;
16662;SDS011;8445;51.270;9.434;2022-09-09T04:01:34;11.10;;;5.40;;
16662;SDS011;8445;51.270;9.434;2022-09-09T04:04:00;7.20;;;4.88;;
16662;SDS011;8445;51.270;9.434;2022-09-09T04:06:27;10.30;;;5.75;;
16662;SDS011;8445;51.270;9.434;2022-09-09T04:08:53;8.13;;;5.05;;
16662;SDS011;8445;51.270;9.434;2022-09-09T04:11:23;8.98;;;5.20;;
16662;SDS011;8445;51.270;9.434;2022-09-09T04:13:51;10.82;;;4.70;;
16662;SDS011;8445;51.270;9.434;2022-09-09T04:16:18;9.18;;;5.43;;
16662;SDS011;8445;51.270;9.434;2022-09-09T04:18:44;9.15;;;5.43;;
16662;SDS011;8445;51.270;9.434;2022-09-09T04:21:13;9.05;;;5.28;;
16662;SDS011;8445;51.270;9.434;2022-09-09T04:23:39;9.57;;;5.30;;
16662;SDS011;8445;51.270;9.434;2022-09-09T04:26:05;6.82;;;5.15;;
16662;SDS011;8445;51.270;9.434;2022-09-09T04:28:34;12.93;;;5.00;;
16662;SDS011;8445;51.270;9.434;2022-09-09T04:31:05;11.25;;;5.07;;
16662;SDS011;8445;51.270;9.434;2022-09-09T04:33:35;9.07;;;4.75;;
16662;SDS011;8445;51.270;9.434;2022-09-09T04:36:01;9.35;;;4.53;;
16662;SDS011;8445;51.270;9.434;2022-09-09T04:38:29;12.07;;;4.63;;
16662;SDS011;8445;51.270;9.434;2022-09-09T04:40:55;14.23;;;4.60;;
16662;SDS011;8445;51.270;9.434;2022-09-09T04:43:22;7.53;;;4.38;;
16662;SDS011;8445;51.270;9.434;2022-09-09T04:45:51;8.65;;;4.70;;
16662;SDS011;8445;51.270;9.434;2022-09-09T04:48:20;10.60;;;4.80;;
16662;SDS011;8445;51.270;9.434;2022-09-09T04:50:57;12.65;;;4.28;;
16662;SDS011;8445;51.270;9.434;2022-09-09T04:53:26;8.68;;;4.22;;
16662;SDS011;8445;51.270;9.434;2022-09-09T04:58:30;10.50;;;4.72;;
16662;SDS011;8445;51.270;9.434;2022-09-09T05:01:30;6.68;;;4.80;;
16662;SDS011;8445;51.270;9.434;2022-09-09T05:03:51;11.38;;;4.38;;
16662;SDS011;8445;51.270;9.434;2022-09-09T05:06:21;9.48;;;4.38;;
16662;SDS011;8445;51.270;9.434;2022-09-09T05:08:52;10.90;;;5.18;;
16662;SDS011;8445;51.270;9.434;2022-09-09T05:11:23;6.68;;;4.35;;
16662;SDS011;8445;51.270;9.434;2022-09-09T05:13:56;7.78;;;4.53;;
16662;SDS011;8445;51.270;9.434;2022-09-09T05:16:22;9.15;;;4.32;;
16662;SDS011;8445;51.270;9.434;2022-09-09T05:18:49;12.65;;;4.47;;
16662;SDS011;8445;51.270;9.434;2022-09-09T05:21:17;11.05;;;4.50;;
16662;SDS011;8445;51.270;9.434;2022-09-09T05:23:48;4.35;;;3.60;;
16662;SDS011;8445;51.270;9.434;2022-09-09T05:26:18;10.63;;;4.10;;
16662;SDS011;8445;51.270;9.434;2022-09-09T05:28:48;8.65;;;3.92;;
16662;SDS011;8445;51.270;9.434;2022-09-09T05:31:15;7.10;;;3.47;;
16662;SDS011;8445;51.270;9.434;2022-09-09T05:33:45;7.57;;;3.50;;
16662;SDS011;8445;51.270;9.434;2022-09-09T05:36:15;6.45;;;3.72;;
16662;SDS011;8445;51.270;9.434;2022-09-09T05:38:46;4.88;;;3.10;;
16662;SDS011;8445;51.270;9.434;2022-09-09T05:41:13;8.80;;;3.47;;
16662;SDS011;8445;51.270;9.434;2022-09-09T05:43:43;7.57;;;3.22;;
16662;SDS011;8445;51.270;9.434;2022-09-09T05:48:48;7.07;;;3.00;;
16662;SDS011;8445;51.270;9.434;2022-09-09T05:51:22;6.95;;;3.47;;
16662;SDS011;8445;51.270;9.434;2022-09-09T05:53:56;5.03;;;2.97;;
16662;SDS011;8445;51.270;9.434;2022-09-09T05:56:28;5.63;;;3.20;;
16662;SDS011;8445;51.270;9.434;2022-09-09T05:58:56;7.30;;;3.35;;
16662;SDS011;8445;51.270;9.434;2022-09-09T06:01:31;7.25;;;3.10;;
16662;SDS011;8445;51.270;9.434;2022-09-09T06:04:00;5.68;;;3.10;;
16662;SDS011;8445;51.270;9.434;2022-09-09T06:06:33;7.88;;;2.90;;
16662;SDS011;8445;51.270;9.434;2022-09-09T06:09:12;5.40;;;2.42;;
16662;SDS011;8445;51.270;9.434;2022-09-09T06:11:40;3.20;;;2.30;;
16662;SDS011;8445;51.270;9.434;2022-09-09T06:14:07;3.72;;;2.20;;
16662;SDS011;8445;51.270;9.434;2022-09-09T06:16:35;3.25;;;2.28;;
16662;SDS011;8445;51.270;9.434;2022-09-09T06:19:04;9.52;;;2.30;;
16662;SDS011;8445;51.270;9.434;2022-09-09T06:21:34;5.85;;;2.30;;
16662;SDS011;8445;51.270;9.434;2022-09-09T06:24:03;4.50;;;2.20;;
16662;SDS011;8445;51.270;9.434;2022-09-09T06:26:31;3.67;;;2.00;;
16662;SDS011;8445;51.270;9.434;2022-09-09T06:29:01;4.70;;;1.92;;
16662;SDS011;8445;51.270;9.434;2022-09-09T06:31:30;4.05;;;2.28;;
16662;SDS011;8445;51.270;9.434;2022-09-09T06:34:05;5.97;;;2.33;;
16662;SDS011;8445;51.270;9.434;2022-09-09T06:36:35;4.72;;;2.28;;
16662;SDS011;8445;51.270;9.434;2022-09-09T06:39:05;3.13;;;1.65;;
16662;SDS011;8445;51.270;9.434;2022-09-09T06:41:33;3.53;;;1.75;;
16662;SDS011;8445;51.270;9.434;2022-09-09T06:44:02;5.75;;;1.90;;
16662;SDS011;8445;51.270;9.434;2022-09-09T06:46:38;2.30;;;1.50;;
16662;SDS011;8445;51.270;9.434;2022-09-09T06:49:08;6.47;;;2.03;;
16662;SDS011;8445;51.270;9.434;2022-09-09T06:51:35;5.53;;;2.13;;
16662;SDS011;8445;51.270;9.434;2022-09-09T06:54:10;4.75;;;2.17;;
16662;SDS011;8445;51.270;9.434;2022-09-09T06:56:38;5.95;;;2.13;;
16662;SDS011;8445;51.270;9.434;2022-09-09T06:59:12;6.10;;;2.13;;
16662;SDS011;8445;51.270;9.434;2022-09-09T07:01:40;4.80;;;1.73;;
16662;SDS011;8445;51.270;9.434;2022-09-09T07:04:12;4.47;;;1.80;;
16662;SDS011;8445;51.270;9.434;2022-09-09T07:06:42;5.07;;;2.00;;
16662;SDS011;8445;51.270;9.434;2022-09-09T07:09:21;3.38;;;1.98;;
16662;SDS011;8445;51.270;9.434;2022-09-09T07:11:50;9.13;;;2.00;;
16662;SDS011;8445;51.270;9.434;2022-09-09T07:14:22;5.97;;;1.92;;
16662;SDS011;8445;51.270;9.434;2022-09-09T07:16:55;5.45;;;2.08;;
16662;SDS011;8445;51.270;9.434;2022-09-09T07:19:34;5.63;;;1.85;;
16662;SDS011;8445;51.270;9.434;2022-09-09T07:22:04;3.58;;;2.22;;
16662;SDS011;8445;51.270;9.434;2022-09-09T07:24:31;6.05;;;1.95;;
16662;SDS011;8445;51.270;9.434;2022-09-09T07:26:57;5.95;;;2.33;;
16662;SDS011;8445;51.270;9.434;2022-09-09T07:29:25;6.20;;;2.00;;
16662;SDS011;8445;51.270;9.434;2022-09-09T07:31:51;4.15;;;1.67;;
16662;SDS011;8445;51.270;9.434;2022-09-09T07:34:22;7.43;;;2.08;;
16662;SDS011;8445;51.270;9.434;2022-09-09T07:36:51;4.65;;;1.90;;
16662;SDS011;8445;51.270;9.434;2022-09-09T07:39:18;3.80;;;1.88;;
16662;SDS011;8445;51.270;9.434;2022-09-09T07:41:52;4.50;;;1.75;;
16662;SDS011;8445;51.270;9.434;2022-09-09T07:44:23;11.07;;;2.70;;
16662;SDS011;8445;51.270;9.434;2022-09-09T07:46:58;4.00;;;2.33;;
16662;SDS011;8445;51.270;9.434;2022-09-09T07:49:29;6.03;;;1.70;;
16662;SDS011;8445;51.270;9.434;2022-09-09T07:51:56;3.95;;;1.80;;
16662;SDS011;8445;51.270;9.434;2022-09-09T07:54:23;5.68;;;1.77;;
16662;SDS011;8445;51.270;9.434;2022-09-09T07:56:51;3.08;;;1.83;;
16662;SDS011;8445;51.270;9.434;2022-09-09T07:59:19;3.72;;;1.90;;
16662;SDS011;8445;51.270;9.434;2022-09-09T08:01:48;6.22;;;1.83;;
16662;SDS011;8445;51.270;9.434;2022-09-09T08:04:23;4.30;;;1.60;;
16662;SDS011;8445;51.270;9.434;2022-09-09T08:06:55;6.57;;;2.10;;
16662;SDS011;8445;51.270;9.434;2022-09-09T08:09:26;5.93;;;2.03;;
16662;SDS011;8445;51.270;9.434;2022-09-09T08:11:59;4.53;;;2.20;;
16662;SDS011;8445;51.270;9.434;2022-09-09T08:14:26;4.88;;;1.80;;
16662;SDS011;8445;51.270;9.434;2022-09-09T08:16:54;2.28;;;1.30;;
16662;SDS011;8445;51.270;9.434;2022-09-09T08:19:22;4.00;;;1.70;;
16662;SDS011;8445;51.270;9.434;2022-09-09T08:21:49;4.32;;;2.03;;
16662;SDS011;8445;51.270;9.434;2022-09-09T08:24:15;3.30;;;1.85;;
16662;SDS011;8445;51.270;9.434;2022-09-09T08:26:47;5.40;;;1.80;;
16662;SDS011;8445;51.270;9.434;2022-09-09T08:29:16;1.63;;;1.30;;
16662;SDS011;8445;51.270;9.434;2022-09-09T08:31:52;4.68;;;2.08;;
16662;SDS011;8445;51.270;9.434;2022-09-09T08:34:22;5.75;;;2.05;;
16662;SDS011;8445;51.270;9.434;2022-09-09T08:36:52;2.67;;;2.03;;
16662;SDS011;8445;51.270;9.434;2022-09-09T08:39:23;8.40;;;1.95;;
16662;SDS011;8445;51.270;9.434;2022-09-09T08:47:19;4.65;;;2.00;;
16662;SDS011;8445;51.270;9.434;2022-09-09T08:52:49;6.28;;;1.85;;
16662;SDS011;8445;51.270;9.434;2022-09-09T08:58:41;4.95;;;1.95;;
16662;SDS011;8445;51.270;9.434;2022-09-09T09:05:16;3.65;;;1.60;;
16662;SDS011;8445;51.270;9.434;2022-09-09T09:13:30;3.58;;;1.48;;
16662;SDS011;8445;51.270;9.434;2022-09-09T09:16:31;4.63;;;1.55;;
16662;SDS011;8445;51.270;9.434;2022-09-09T09:19:21;6.28;;;1.45;;
16662;SDS011;8445;51.270;9.434;2022-09-09T09:27:35;3.97;;;1.30;;
16662;SDS011;8445;51.270;9.434;2022-09-09T09:33:47;5.78;;;1.83;;
16662;SDS011;8445;51.270;9.434;2022-09-09T09:36:34;4.78;;;1.70;;
16662;SDS011;8445;51.270;9.434;2022-09-09T09:39:22;4.25;;;1.50;;
16662;SDS011;8445;51.270;9.434;2022-09-09T09:42:12;4.10;;;1.40;;
16662;SDS011;8445;51.270;9.434;2022-09-09T09:44:44;5.47;;;1.80;;
16662;SDS011;8445;51.270;9.434;2022-09-09T09:47:19;6.72;;;1.90;;
16662;SDS011;8445;51.270;9.434;2022-09-09T09:49:56;7.68;;;2.08;;
16662;SDS011;8445;51.270;9.434;2022-09-09T09:52:26;3.60;;;1.48;;
16662;SDS011;8445;51.270;9.434;2022-09-09T09:54:57;3.03;;;1.45;;
16662;SDS011;8445;51.270;9.434;2022-09-09T09:57:30;4.70;;;1.60;;
16662;SDS011;8445;51.270;9.434;2022-09-09T10:00:12;5.88;;;2.15;;
16662;SDS011;8445;51.270;9.434;2022-09-09T10:02:48;6.88;;;2.03;;
16662;SDS011;8445;51.270;9.434;2022-09-09T10:05:24;7.53;;;1.75;;
16662;SDS011;8445;51.270;9.434;2022-09-09T10:08:00;6.28;;;1.75;;
16662;SDS011;8445;51.270;9.434;2022-09-09T10:21:51;4.90;;;1.92;;
16662;SDS011;8445;51.270;9.434;2022-09-09T10:32:38;4.10;;;1.58;;
16662;SDS011;8445;51.270;9.434;2022-09-09T10:54:59;4.35;;;1.30;;
16662;SDS011;8445;51.270;9.434;2022-09-09T10:57:37;6.78;;;1.70;;
16662;SDS011;8445;51.270;9.434;2022-09-09T11:00:34;3.17;;;1.40;;
16662;SDS011;8445;51.270;9.434;2022-09-09T11:03:11;3.63;;;1.70;;
16662;SDS011;8445;51.270;9.434;2022-09-09T11:05:52;7.38;;;1.60;;
16662;SDS011;8445;51.270;9.434;2022-09-09T11:08:30;6.32;;;1.73;;
16662;SDS011;8445;51.270;9.434;2022-09-09T11:11:04;3.92;;;1.33;;
16662;SDS011;8445;51.270;9.434;2022-09-09T11:13:55;5.20;;;1.77;;
16662;SDS011;8445;51.270;9.434;2022-09-09T11:17:00;3.95;;;1.40;;
16662;SDS011;8445;51.270;9.434;2022-09-09T11:19:37;3.97;;;1.52;;
16662;SDS011;8445;51.270;9.434;2022-09-09T11:22:19;3.85;;;1.75;;
16662;SDS011;8445;51.270;9.434;2022-09-09T11:24:57;8.00;;;2.00;;
16662;SDS011;8445;51.270;9.434;2022-09-09T11:27:54;3.53;;;1.60;;
16662;SDS011;8445;51.270;9.434;2022-09-09T11:42:07;5.43;;;1.85;;
16662;SDS011;8445;51.270;9.434;2022-09-09T11:44:52;6.20;;;1.55;;
16662;SDS011;8445;51.270;9.434;2022-09-09T11:47:26;3.85;;;1.50;;
16662;SDS011;8445;51.270;9.434;2022-09-09T11:50:06;3.63;;;1.42;;
16662;SDS011;8445;51.270;9.434;2022-09-09T11:52:46;4.65;;;1.67;;
16662;SDS011;8445;51.270;9.434;2022-09-09T11:55:30;4.93;;;1.85;;
16662;SDS011;8445;51.270;9.434;2022-09-09T12:00:44;5.57;;;1.95;;
16662;SDS011;8445;51.270;9.434;2022-09-09T12:06:11;4.57;;;1.45;;
16662;SDS011;8445;51.270;9.434;2022-09-09T12:09:05;5.00;;;2.00;;
16662;SDS011;8445;51.270;9.434;2022-09-09T12:11:38;4.82;;;1.88;;
16662;SDS011;8445;51.270;9.434;2022-09-09T12:14:18;4.95;;;1.73;;
16662;SDS011;8445;51.270;9.434;2022-09-09T12:17:31;4.95;;;1.60;;
16662;SDS011;8445;51.270;9.434;2022-09-09T12:28:39;3.42;;;1.30;;
16662;SDS011;8445;51.270;9.434;2022-09-09T12:35:41;6.03;;;1.48;;
16662;SDS011;8445;51.270;9.434;2022-09-09T12:38:00;1.75;;;1.10;;
16662;SDS011;8445;51.270;9.434;2022-09-09T12:40:38;1.77;;;1.10;;
16662;SDS011;8445;51.270;9.434;2022-09-09T12:43:29;5.03;;;1.40;;
16662;SDS011;8445;51.270;9.434;2022-09-09T12:46:07;3.60;;;1.13;;
16662;SDS011;8445;51.270;9.434;2022-09-09T12:52:23;4.38;;;0.57;;
16662;SDS011;8445;51.270;9.434;2022-09-09T12:55:03;1.42;;;0.57;;
16662;SDS011;8445;51.270;9.434;2022-09-09T12:57:37;2.45;;;1.00;;
16662;SDS011;8445;51.270;9.434;2022-09-09T13:00:20;1.73;;;0.30;;
16662;SDS011;8445;51.270;9.434;2022-09-09T13:02:53;2.13;;;0.80;;
16662;SDS011;8445;51.270;9.434;2022-09-09T13:05:45;1.55;;;0.77;;
16662;SDS011;8445;51.270;9.434;2022-09-09T13:08:12;2.85;;;0.88;;
16662;SDS011;8445;51.270;9.434;2022-09-09T13:10:52;2.97;;;1.00;;
16662;SDS011;8445;51.270;9.434;2022-09-09T13:13:35;2.60;;;0.93;;
16662;SDS011;8445;51.270;9.434;2022-09-09T13:16:05;1.15;;;0.60;;
16662;SDS011;8445;51.270;9.434;2022-09-09T13:18:45;1.80;;;0.80;;
16662;SDS011;8445;51.270;9.434;2022-09-09T13:21:12;2.42;;;0.95;;
16662;SDS011;8445;51.270;9.434;2022-09-09T13:23:38;2.22;;;0.90;;
16662;SDS011;8445;51.270;9.434;2022-09-09T13:26:21;2.35;;;0.80;;
16662;SDS011;8445;51.270;9.434;2022-09-09T13:28:51;4.15;;;1.08;;
16662;SDS011;8445;51.270;9.434;2022-09-09T13:31:30;3.30;;;1.00;;
16662;SDS011;8445;51.270;9.434;2022-09-09T13:34:10;2.75;;;1.17;;
16662;SDS011;8445;51.270;9.434;2022-09-09T13:36:52;3.67;;;1.40;;
16662;SDS011;8445;51.270;9.434;2022-09-09T13:39:31;1.80;;;1.08;;
16662;SDS011;8445;51.270;9.434;2022-09-09T13:42:19;2.17;;;1.10;;
16662;SDS011;8445;51.270;9.434;2022-09-09T13:44:51;3.17;;;1.60;;
16662;SDS011;8445;51.270;9.434;2022-09-09T13:47:19;4.20;;;1.73;;
16662;SDS011;8445;51.270;9.434;2022-09-09T13:49:52;3.58;;;1.45;;
16662;SDS011;8445;51.270;9.434;2022-09-09T13:52:18;4.85;;;1.13;;
16662;SDS011;8445;51.270;9.434;2022-09-09T13:54:48;3.53;;;1.10;;
16662;SDS011;8445;51.270;9.434;2022-09-09T13:57:18;5.55;;;1.00;;
16662;SDS011;8445;51.270;9.434;2022-09-09T13:59:50;2.55;;;1.15;;
16662;SDS011;8445;51.270;9.434;2022-09-09T14:02:19;5.82;;;1.27;;
16662;SDS011;8445;51.270;9.434;2022-09-09T14:04:48;1.80;;;0.88;;
16662;SDS011;8445;51.270;9.434;2022-09-09T14:07:21;3.03;;;0.90;;
16662;SDS011;8445;51.270;9.434;2022-09-09T14:09:48;4.53;;;1.35;;
16662;SDS011;8445;51.270;9.434;2022-09-09T14:12:23;3.08;;;1.20;;
16662;SDS011;8445;51.270;9.434;2022-09-09T14:14:49;5.15;;;1.25;;
16662;SDS011;8445;51.270;9.434;2022-09-09T14:17:15;4.78;;;1.40;;
16662;SDS011;8445;51.270;9.434;2022-09-09T14:19:42;2.92;;;1.05;;
16662;SDS011;8445;51.270;9.434;2022-09-09T14:22:08;1.98;;;0.95;;
16662;SDS011;8445;51.270;9.434;2022-09-09T14:24:34;2.10;;;0.85;;
16662;SDS011;8445;51.270;9.434;2022-09-09T14:27:00;2.35;;;1.00;;
16662;SDS011;8445;51.270;9.434;2022-09-09T14:29:26;1.85;;;0.80;;
16662;SDS011;8445;51.270;9.434;2022-09-09T14:31:51;3.47;;;1.38;;
16662;SDS011;8445;51.270;9.434;2022-09-09T14:34:17;2.10;;;1.33;;
16662;SDS011;8445;51.270;9.434;2022-09-09T14:36:43;2.55;;;1.10;;
16662;SDS011;8445;51.270;9.434;2022-09-09T14:39:10;6.63;;;1.40;;
16662;SDS011;8445;51.270;9.434;2022-09-09T14:41:36;2.90;;;1.45;;
16662;SDS011;8445;51.270;9.434;2022-09-09T14:44:03;5.18;;;1.70;;
16662;SDS011;8445;51.270;9.434;2022-09-09T14:46:28;5.68;;;1.60;;
16662;SDS011;8445;51.270;9.434;2022-09-09T14:48:54;6.15;;;2.38;;
16662;SDS011;8445;51.270;9.434;2022-09-09T14:51:22;4.07;;;1.27;;
16662;SDS011;8445;51.270;9.434;2022-09-09T14:53:54;3.47;;;1.42;;
16662;SDS011;8445;51.270;9.434;2022-09-09T14:56:23;11.85;;;7.10;;
16662;SDS011;8445;51.270;9.434;2022-09-09T14:58:56;5.15;;;1.20;;
16662;SDS011;8445;51.270;9.434;2022-09-09T15:01:25;2.00;;;0.90;;
16662;SDS011;8445;51.270;9.434;2022-09-09T15:03:55;1.90;;;1.00;;
16662;SDS011;8445;51.270;9.434;2022-09-09T15:06:29;4.72;;;1.50;;
16662;SDS011;8445;51.270;9.434;2022-09-09T15:08:59;6.22;;;1.30;;
16662;SDS011;8445;51.270;9.434;2022-09-09T15:11:26;2.05;;;0.90;;
16662;SDS011;8445;51.270;9.434;2022-09-09T15:13:55;4.85;;;1.33;;
16662;SDS011;8445;51.270;9.434;2022-09-09T15:16:24;3.65;;;1.15;;
16662;SDS011;8445;51.270;9.434;2022-09-09T15:18:53;2.20;;;1.00;;
16662;SDS011;8445;51.270;9.434;2022-09-09T15:21:23;3.58;;;1.30;;
16662;SDS011;8445;51.270;9.434;2022-09-09T15:23:52;3.10;;;0.93;;
16662;SDS011;8445;51.270;9.434;2022-09-09T15:26:20;1.55;;;1.05;;
16662;SDS011;8445;51.270;9.434;2022-09-09T15:28:46;4.72;;;1.30;;
16662;SDS011;8445;51.270;9.434;2022-09-09T15:33:55;3.50;;;1.67;;
16662;SDS011;8445;51.270;9.434;2022-09-09T15:36:30;3.83;;;1.50;;
16662;SDS011;8445;51.270;9.434;2022-09-09T15:38:58;2.65;;;1.50;;
16662;SDS011;8445;51.270;9.434;2022-09-09T15:41:26;5.50;;;1.35;;
16662;SDS011;8445;51.270;9.434;2022-09-09T15:43:54;3.28;;;1.30;;
16662;SDS011;8445;51.270;9.434;2022-09-09T15:51:39;3.53;;;1.13;;
16662;SDS011;8445;51.270;9.434;2022-09-09T15:54:08;4.45;;;1.15;;
16662;SDS011;8445;51.270;9.434;2022-09-09T15:56:37;4.30;;;1.23;;
16662;SDS011;8445;51.270;9.434;2022-09-09T15:59:03;3.60;;;1.42;;
16662;SDS011;8445;51.270;9.434;2022-09-09T16:01:29;2.53;;;1.58;;
16662;SDS011;8445;51.270;9.434;2022-09-09T16:04:12;7.30;;;2.10;;
16662;SDS011;8445;51.270;9.434;2022-09-09T16:06:47;3.83;;;1.60;;
16662;SDS011;8445;51.270;9.434;2022-09-09T16:09:16;6.40;;;2.25;;
16662;SDS011;8445;51.270;9.434;2022-09-09T16:11:42;4.95;;;1.63;;
16662;SDS011;8445;51.270;9.434;2022-09-09T16:14:08;2.85;;;1.63;;
16662;SDS011;8445;51.270;9.434;2022-09-09T16:16:55;3.10;;;1.52;;
16662;SDS011;8445;51.270;9.434;2022-09-09T16:19:20;4.65;;;1.70;;
16662;SDS011;8445;51.270;9.434;2022-09-09T16:21:49;3.47;;;1.20;;
16662;SDS011;8445;51.270;9.434;2022-09-09T16:24:16;3.58;;;1.55;;
16662;SDS011;8445;51.270;9.434;2022-09-09T16:26:45;2.67;;;1.00;;
16662;SDS011;8445;51.270;9.434;2022-09-09T16:29:19;2.25;;;1.30;;
16662;SDS011;8445;51.270;9.434;2022-09-09T16:31:47;5.22;;;1.13;;
16662;SDS011;8445;51.270;9.434;2022-09-09T16:34:15;3.03;;;1.30;;
16662;SDS011;8445;51.270;9.434;2022-09-09T16:36:43;3.60;;;1.70;;
16662;SDS011;8445;51.270;9.434;2022-09-09T16:39:11;4.43;;;2.00;;
16662;SDS011;8445;51.270;9.434;2022-09-09T16:41:46;2.25;;;1.65;;
16662;SDS011;8445;51.270;9.434;2022-09-09T16:44:14;3.40;;;1.05;;
16662;SDS011;8445;51.270;9.434;2022-09-09T16:46:43;2.70;;;0.98;;
16662;SDS011;8445;51.270;9.434;2022-09-09T16:49:21;4.18;;;1.30;;
16662;SDS011;8445;51.270;9.434;2022-09-09T16:51:49;6.55;;;1.00;;
16662;SDS011;8445;51.270;9.434;2022-09-09T16:54:18;2.42;;;1.23;;
16662;SDS011;8445;51.270;9.434;2022-09-09T16:56:46;2.25;;;1.13;;
16662;SDS011;8445;51.270;9.434;2022-09-09T16:59:15;1.90;;;0.80;;
16662;SDS011;8445;51.270;9.434;2022-09-09T17:01:45;4.15;;;1.20;;
16662;SDS011;8445;51.270;9.434;2022-09-09T17:04:15;2.83;;;1.20;;
16662;SDS011;8445;51.270;9.434;2022-09-09T17:06:50;2.97;;;1.38;;
16662;SDS011;8445;51.270;9.434;2022-09-09T17:09:19;2.42;;;1.38;;
16662;SDS011;8445;51.270;9.434;2022-09-09T17:11:54;3.72;;;1.50;;
16662;SDS011;8445;51.270;9.434;2022-09-09T17:14:26;1.98;;;1.23;;
16662;SDS011;8445;51.270;9.434;2022-09-09T17:16:52;2.97;;;1.20;;
16662;SDS011;8445;51.270;9.434;2022-09-09T17:19:17;3.10;;;1.10;;
16662;SDS011;8445;51.270;9.434;2022-09-09T17:21:43;5.43;;;1.60;;
16662;SDS011;8445;51.270;9.434;2022-09-09T17:24:18;4.70;;;1.13;;
16662;SDS011;8445;51.270;9.434;2022-09-09T17:26:44;2.50;;;0.85;;
16662;SDS011;8445;51.270;9.434;2022-09-09T17:29:10;3.92;;;1.13;;
16662;SDS011;8445;51.270;9.434;2022-09-09T17:31:36;2.95;;;1.17;;
16662;SDS011;8445;51.270;9.434;2022-09-09T17:35:32;2.55;;;1.10;;
16662;SDS011;8445;51.270;9.434;2022-09-09T17:37:50;1.85;;;1.20;;
16662;SDS011;8445;51.270;9.434;2022-09-09T17:40:41;3.45;;;1.30;;
16662;SDS011;8445;51.270;9.434;2022-09-09T17:43:28;7.90;;;1.20;;
16662;SDS011;8445;51.270;9.434;2022-09-09T17:46:06;3.90;;;1.02;;
16662;SDS011;8445;51.270;9.434;2022-09-09T17:49:02;4.13;;;1.33;;
16662;SDS011;8445;51.270;9.434;2022-09-09T17:54:38;2.00;;;1.08;;
16662;SDS011;8445;51.270;9.434;2022-09-09T17:57:07;2.30;;;0.77;;
16662;SDS011;8445;51.270;9.434;2022-09-09T17:59:32;5.80;;;1.30;;
16662;SDS011;8445;51.270;9.434;2022-09-09T18:01:58;1.85;;;1.20;;
16662;SDS011;8445;51.270;9.434;2022-09-09T18:04:24;4.72;;;1.35;;
16662;SDS011;8445;51.270;9.434;2022-09-09T18:06:51;2.47;;;1.00;;
16662;SDS011;8445;51.270;9.434;2022-09-09T18:09:19;2.33;;;1.15;;
16662;SDS011;8445;51.270;9.434;2022-09-09T18:11:49;1.23;;;0.90;;
16662;SDS011;8445;51.270;9.434;2022-09-09T18:14:19;2.50;;;1.15;;
16662;SDS011;8445;51.270;9.434;2022-09-09T18:16:52;4.07;;;1.25;;
16662;SDS011;8445;51.270;9.434;2022-09-09T18:19:19;3.58;;;0.90;;
16662;SDS011;8445;51.270;9.434;2022-09-09T18:21:49;3.83;;;1.48;;